createdAt,value
2017-11-20T00:01:02.186Z,9.10
2017-11-20T00:03:29.826Z,9.23
2017-11-20T00:05:57.417Z,9.93
2017-11-20T00:08:25.052Z,13.40
2017-11-20T00:10:52.683Z,13.23
2017-11-20T00:13:20.325Z,12.13
2017-11-20T00:15:47.947Z,12.87
2017-11-20T00:18:15.588Z,9.50
2017-11-20T00:20:43.218Z,12.40
2017-11-20T00:23:10.913Z,11.50
2017-11-20T00:25:38.540Z,9.87
2017-11-20T00:28:06.174Z,8.63
2017-11-20T00:30:33.927Z,14.70
2017-11-20T00:33:01.550Z,8.13
2017-11-20T00:35:29.159Z,11.27
2017-11-20T00:37:56.795Z,10.83
2017-11-20T00:40:24.399Z,7.10
2017-11-20T00:42:52.037Z,8.63
2017-11-20T00:45:19.640Z,8.40
2017-11-20T00:47:47.392Z,11.83
2017-11-20T00:50:15.006Z,9.40
2017-11-20T00:52:42.634Z,10.60
2017-11-20T00:55:10.306Z,10.30
2017-11-20T00:57:37.916Z,11.17
2017-11-20T01:00:05.545Z,10.23
2017-11-20T01:02:33.168Z,10.30
2017-11-20T01:05:00.767Z,7.97
2017-11-20T01:07:28.502Z,9.10
2017-11-20T01:09:56.115Z,9.40
2017-11-20T01:12:23.748Z,9.53
2017-11-20T01:14:51.352Z,10.53
2017-11-20T01:17:18.994Z,12.33
2017-11-20T01:19:46.607Z,7.40
2017-11-20T01:22:14.288Z,11.77
2017-11-20T01:24:41.885Z,10.37
2017-11-20T01:27:09.529Z,11.20
2017-11-20T01:29:37.132Z,7.37
2017-11-20T01:32:04.751Z,8.50
2017-11-20T01:34:32.353Z,8.30
2017-11-20T01:36:59.991Z,9.53
2017-11-20T01:39:27.590Z,10.80
2017-11-20T01:41:55.271Z,5.83
2017-11-20T01:44:22.864Z,8.13
2017-11-20T01:46:50.490Z,7.40
2017-11-20T01:49:18.121Z,8.23
2017-11-20T01:51:45.750Z,8.40
2017-11-20T01:54:13.394Z,10.70
2017-11-20T01:56:41.058Z,7.67
2017-11-20T01:59:08.700Z,11.23
2017-11-20T02:01:36.290Z,7.53
2017-11-20T02:04:03.891Z,13.57
2017-11-20T02:06:31.527Z,11.83
2017-11-20T02:08:59.134Z,11.17
2017-11-20T02:11:26.773Z,10.07
2017-11-20T02:13:54.462Z,13.43
2017-11-20T02:16:22.092Z,7.43
2017-11-20T02:18:49.682Z,4.53
2017-11-20T02:21:17.322Z,5.63
2017-11-20T02:23:44.905Z,7.30
2017-11-20T02:26:12.616Z,9.87
2017-11-20T02:28:40.199Z,6.90
2017-11-20T02:31:07.824Z,7.50
2017-11-20T02:33:36.570Z,7.27
2017-11-20T02:36:04.829Z,6.23
2017-11-20T02:38:33.959Z,4.70
2017-11-20T02:41:01.576Z,5.77
2017-11-20T02:43:29.195Z,6.17
2017-11-20T02:45:56.840Z,12.03
2017-11-20T02:48:24.468Z,7.07
2017-11-20T02:50:52.468Z,4.27
2017-11-20T02:53:20.060Z,10.10
2017-11-20T02:55:47.682Z,14.50
2017-11-20T02:58:15.277Z,4.80
2017-11-20T03:00:42.914Z,8.80
2017-11-20T03:03:10.523Z,14.37
2017-11-20T03:05:39.042Z,8.50
2017-11-20T03:08:07.545Z,6.63
2017-11-20T03:10:35.172Z,8.63
2017-11-20T03:13:03.886Z,14.50
2017-11-20T03:15:32.282Z,10.80
2017-11-20T03:17:59.874Z,11.80
2017-11-20T03:20:27.494Z,7.20
2017-11-20T03:22:55.097Z,7.63
2017-11-20T03:25:22.722Z,10.87
2017-11-20T03:27:50.318Z,6.37
2017-11-20T03:30:17.961Z,6.13
2017-11-20T03:32:45.584Z,13.47
2017-11-20T03:35:13.199Z,7.73
2017-11-20T03:37:40.803Z,8.27
2017-11-20T03:40:08.429Z,8.30
2017-11-20T03:42:36.031Z,11.77
2017-11-20T03:45:03.655Z,12.03
2017-11-20T03:47:31.255Z,10.07
2017-11-20T03:49:58.866Z,8.00
2017-11-20T03:52:26.478Z,13.10
2017-11-20T03:54:54.139Z,18.27
2017-11-20T03:57:21.733Z,10.83
2017-11-20T03:59:49.371Z,11.40
2017-11-20T04:02:16.976Z,9.03
2017-11-20T04:04:44.611Z,10.47
2017-11-20T04:07:12.202Z,8.40
2017-11-20T04:09:39.829Z,10.57
2017-11-20T04:12:07.439Z,10.47
2017-11-20T04:14:35.109Z,13.80
2017-11-20T04:17:02.702Z,8.10
2017-11-20T04:19:30.334Z,11.40
2017-11-20T04:21:57.990Z,10.00
2017-11-20T04:24:25.638Z,10.37
2017-11-20T04:26:53.238Z,11.93
2017-11-20T04:29:20.868Z,17.30
2017-11-20T04:31:48.486Z,15.30
2017-11-20T04:34:16.131Z,11.40
2017-11-20T04:36:43.735Z,15.10
2017-11-20T04:39:11.397Z,15.03
2017-11-20T04:41:39.008Z,14.87
2017-11-20T04:44:06.707Z,13.63
2017-11-20T04:46:34.318Z,17.30
2017-11-20T04:49:01.961Z,14.63
2017-11-20T04:51:29.551Z,18.93
2017-11-20T04:53:57.191Z,11.30
2017-11-20T04:56:24.807Z,12.00
2017-11-20T04:58:52.520Z,14.50
2017-11-20T05:01:20.121Z,21.17
2017-11-20T05:03:47.754Z,16.40
2017-11-20T05:06:15.462Z,11.43
2017-11-20T05:08:43.178Z,12.57
2017-11-20T05:11:10.794Z,12.23
2017-11-20T05:13:38.417Z,12.03
2017-11-20T05:16:06.084Z,16.93
2017-11-20T05:18:33.717Z,11.20
2017-11-20T05:21:01.354Z,12.50
2017-11-20T05:23:29.038Z,11.47
2017-11-20T05:25:56.695Z,13.90
2017-11-20T05:28:24.321Z,17.07
2017-11-20T05:30:51.990Z,10.80
2017-11-20T05:33:19.628Z,12.47
2017-11-20T05:35:47.248Z,18.40
2017-11-20T05:38:14.886Z,15.30
2017-11-20T05:40:42.497Z,11.60
2017-11-20T05:43:10.134Z,15.13
2017-11-20T05:45:37.752Z,18.60
2017-11-20T05:48:05.383Z,12.30
2017-11-20T05:50:33.013Z,11.00
2017-11-20T05:53:00.692Z,10.50
2017-11-20T05:55:28.290Z,9.10
2017-11-20T05:57:56.073Z,11.80
2017-11-20T06:00:23.687Z,12.73
2017-11-20T06:02:51.318Z,10.67
2017-11-20T06:05:18.955Z,9.60
2017-11-20T06:07:46.601Z,10.03
2017-11-20T06:10:14.202Z,13.20
2017-11-20T06:12:41.849Z,16.00
2017-11-20T06:15:09.482Z,7.60
2017-11-20T06:17:37.226Z,15.40
2017-11-20T06:20:04.831Z,13.10
2017-11-20T06:22:32.467Z,13.37
2017-11-20T06:25:00.078Z,11.13
2017-11-20T06:27:27.715Z,11.47
2017-11-20T06:29:55.346Z,10.37
2017-11-20T06:32:22.983Z,10.43
2017-11-20T06:34:50.602Z,9.20
2017-11-20T06:37:18.311Z,9.57
2017-11-20T06:39:45.915Z,9.43
2017-11-20T06:42:13.526Z,13.87
2017-11-20T06:44:41.158Z,17.93
2017-11-20T06:47:08.750Z,9.30
2017-11-20T06:49:36.382Z,12.03
2017-11-20T06:52:03.995Z,8.77
2017-11-20T06:54:31.660Z,15.60
2017-11-20T06:56:59.277Z,10.97
2017-11-20T06:59:26.951Z,19.60
2017-11-20T07:01:54.599Z,12.30
2017-11-20T07:04:22.236Z,9.73
2017-11-20T07:06:50.081Z,10.73
2017-11-20T07:09:17.714Z,15.40
2017-11-20T07:11:45.322Z,13.50
2017-11-20T07:14:12.950Z,9.10
2017-11-20T07:16:40.696Z,10.50
2017-11-20T07:19:08.329Z,9.47
2017-11-20T07:21:35.954Z,11.00
2017-11-20T07:24:03.586Z,12.50
2017-11-20T07:26:43.046Z,9.20
2017-11-20T07:29:22.522Z,12.93
2017-11-20T07:31:50.135Z,10.90
2017-11-20T07:34:29.654Z,9.10
2017-11-20T07:40:17.869Z,8.50
2017-11-20T07:42:45.514Z,11.53
2017-11-20T07:45:13.118Z,4.53
2017-11-20T07:47:40.773Z,10.63
2017-11-20T07:50:08.535Z,8.23
2017-11-20T07:52:36.186Z,12.70
2017-11-20T07:55:03.831Z,13.33
2017-11-20T07:57:31.462Z,6.77
2017-11-20T07:59:59.053Z,7.57
2017-11-20T08:02:26.692Z,6.67
2017-11-20T08:04:54.296Z,7.63
2017-11-20T08:07:21.928Z,8.93
2017-11-20T08:09:49.537Z,14.37
2017-11-20T08:12:17.127Z,6.40
2017-11-20T08:14:44.754Z,8.23
2017-11-20T08:17:12.343Z,8.10
2017-11-20T08:19:39.982Z,8.33
2017-11-20T08:22:07.581Z,5.70
2017-11-20T08:24:35.222Z,4.73
2017-11-20T08:27:02.830Z,4.67
2017-11-20T08:29:30.476Z,5.87
2017-11-20T08:31:58.098Z,5.73
2017-11-20T08:34:25.704Z,7.93
2017-11-20T08:36:53.335Z,10.50
2017-11-20T08:39:20.935Z,9.20
2017-11-20T08:41:48.535Z,6.57
2017-11-20T08:44:16.191Z,11.37
2017-11-20T08:46:43.794Z,6.33
2017-11-20T08:49:11.439Z,5.60
2017-11-20T08:51:39.080Z,9.33
2017-11-20T08:54:06.699Z,4.20
2017-11-20T08:56:34.294Z,9.30
2017-11-20T08:59:01.893Z,5.60
2017-11-20T09:01:29.508Z,6.27
2017-11-20T09:03:57.110Z,12.97
2017-11-20T09:06:24.823Z,5.70
2017-11-20T09:08:52.448Z,7.40
2017-11-20T09:11:20.046Z,10.90
2017-11-20T09:13:47.730Z,6.60
2017-11-20T09:16:15.371Z,4.80
2017-11-20T09:18:42.999Z,8.90
2017-11-20T09:21:10.605Z,6.93
2017-11-20T09:23:38.223Z,6.03
2017-11-20T09:26:05.821Z,5.13
2017-11-20T09:28:33.482Z,5.40
2017-11-20T09:31:01.066Z,4.40
2017-11-20T09:33:28.686Z,3.03
2017-11-20T09:35:56.367Z,3.13
2017-11-20T09:38:24.015Z,3.50
2017-11-20T09:40:51.617Z,8.03
2017-11-20T09:43:19.246Z,3.33
2017-11-20T09:45:46.856Z,7.63
2017-11-20T09:48:14.483Z,3.10
2017-11-20T09:50:42.082Z,2.77
2017-11-20T09:53:09.716Z,4.60
2017-11-20T09:55:37.359Z,3.73
2017-11-20T09:58:05.182Z,2.53
2017-11-20T10:00:32.771Z,7.43
2017-11-20T10:03:00.411Z,3.23
2017-11-20T10:05:28.035Z,4.97
2017-11-20T10:07:55.668Z,3.17
2017-11-20T10:10:23.256Z,1.87
2017-11-20T10:12:50.878Z,2.50
2017-11-20T10:15:18.471Z,1.90
2017-11-20T10:17:46.184Z,1.37
2017-11-20T10:20:13.850Z,3.20
2017-11-20T10:22:41.472Z,3.07
2017-11-20T10:25:09.071Z,3.17
2017-11-20T10:27:36.698Z,1.93
2017-11-20T10:30:04.297Z,5.00
2017-11-20T10:32:31.984Z,3.87
2017-11-20T10:34:59.573Z,5.20
2017-11-20T10:37:27.202Z,4.60
2017-11-20T10:39:54.805Z,5.00
2017-11-20T10:42:22.430Z,2.47
2017-11-20T10:44:50.039Z,2.37
2017-11-20T10:47:17.677Z,2.70
2017-11-20T10:49:45.278Z,3.83
2017-11-20T10:52:12.917Z,4.00
2017-11-20T10:54:40.503Z,5.20
2017-11-20T10:57:08.127Z,3.50
2017-11-20T10:59:35.722Z,2.23
2017-11-20T11:02:03.367Z,2.67
2017-11-20T11:04:31.003Z,2.90
2017-11-20T11:06:58.626Z,3.40
2017-11-20T11:09:26.229Z,4.70
2017-11-20T11:11:53.850Z,3.33
2017-11-20T11:14:21.519Z,10.87
2017-11-20T11:16:49.182Z,2.50
2017-11-20T11:19:16.766Z,3.30
2017-11-20T11:21:44.390Z,2.63
2017-11-20T11:24:11.991Z,7.50
2017-11-20T11:26:39.619Z,3.80
2017-11-20T11:29:07.222Z,4.90
2017-11-20T11:31:34.847Z,3.77
2017-11-20T11:34:02.452Z,6.87
2017-11-20T11:36:30.151Z,4.60
2017-11-20T11:38:57.730Z,6.03
2017-11-20T11:41:25.354Z,5.40
2017-11-20T11:43:52.938Z,8.10
2017-11-20T11:46:20.596Z,6.73
2017-11-20T11:48:48.208Z,4.53
2017-11-20T11:51:15.857Z,7.10
2017-11-20T11:53:43.460Z,5.63
2017-11-20T11:56:11.126Z,5.57
2017-11-20T11:58:38.742Z,6.00
2017-11-20T12:01:06.368Z,7.77
2017-11-20T12:03:33.978Z,8.43
2017-11-20T12:06:01.606Z,8.13
2017-11-20T12:08:29.203Z,9.90
2017-11-20T12:10:56.890Z,9.77
2017-11-20T12:13:24.583Z,8.17
2017-11-20T12:15:52.237Z,7.30
2017-11-20T12:18:19.827Z,8.00
2017-11-20T12:20:47.463Z,7.30
2017-11-20T12:23:15.072Z,7.10
2017-11-20T12:25:42.714Z,7.20
2017-11-20T12:28:10.315Z,14.50
2017-11-20T12:30:37.943Z,12.30
2017-11-20T12:33:05.542Z,14.07
2017-11-20T12:35:33.170Z,16.80
2017-11-20T12:38:00.772Z,9.00
2017-11-20T12:40:28.551Z,11.57
2017-11-20T12:42:56.146Z,8.37
2017-11-20T12:45:23.783Z,9.93
2017-11-20T12:47:51.386Z,15.77
2017-11-20T12:50:18.997Z,11.10
2017-11-20T12:52:46.627Z,9.73
2017-11-20T12:55:14.314Z,12.17
2017-11-20T12:57:41.963Z,12.70
2017-11-20T13:00:09.594Z,12.57
2017-11-20T13:02:37.255Z,11.83
2017-11-20T13:05:04.911Z,12.37
2017-11-20T13:07:32.534Z,13.87
2017-11-20T13:10:00.170Z,15.00
2017-11-20T13:12:27.767Z,14.50
2017-11-20T13:14:55.420Z,11.37
2017-11-20T13:17:23.055Z,13.17
2017-11-20T13:19:50.692Z,13.17
2017-11-20T13:22:18.321Z,14.70
2017-11-20T13:24:45.959Z,14.57
2017-11-20T13:27:13.550Z,20.03
2017-11-20T13:29:41.202Z,14.77
2017-11-20T13:32:08.862Z,11.30
2017-11-20T13:34:36.505Z,16.90
2017-11-20T13:37:04.166Z,15.00
2017-11-20T13:39:31.830Z,14.53
2017-11-20T13:41:59.425Z,15.73
2017-11-20T13:44:27.040Z,18.03
2017-11-20T13:46:54.683Z,12.77
2017-11-20T13:49:22.302Z,17.70
2017-11-20T13:51:49.970Z,21.63
2017-11-20T13:54:17.617Z,20.40
2017-11-20T13:56:45.258Z,16.90
2017-11-20T13:59:12.935Z,19.87
2017-11-20T14:01:40.579Z,18.20
2017-11-20T14:04:08.175Z,16.07
2017-11-20T14:06:36.556Z,18.27
2017-11-20T14:09:04.808Z,17.80
2017-11-20T14:11:32.461Z,16.53
2017-11-20T14:14:00.069Z,17.20
2017-11-20T14:16:27.715Z,17.03
2017-11-20T14:18:55.323Z,16.10
2017-11-20T14:21:23.008Z,15.43
2017-11-20T14:23:50.608Z,17.37
2017-11-20T14:26:18.252Z,18.53
2017-11-20T14:28:45.860Z,15.13
2017-11-20T14:31:13.486Z,21.93
2017-11-20T14:33:41.087Z,13.17
2017-11-20T14:36:08.763Z,14.63
2017-11-20T14:38:36.388Z,22.37
2017-11-20T14:41:04.017Z,17.87
2017-11-20T14:43:31.627Z,17.07
2017-11-20T14:45:59.263Z,19.43
2017-11-20T14:48:32.509Z,16.70
2017-11-20T14:51:01.838Z,19.43
2017-11-20T14:53:33.819Z,15.17
2017-11-20T14:56:01.431Z,18.23
2017-11-20T14:58:29.087Z,13.17
2017-11-20T15:00:56.700Z,14.20
2017-11-20T15:03:24.308Z,15.50
2017-11-20T15:05:51.951Z,11.73
2017-11-20T15:08:19.614Z,12.40
2017-11-20T15:10:47.259Z,12.00
2017-11-20T15:13:14.861Z,17.07
2017-11-20T15:18:32.436Z,13.80
2017-11-20T15:21:00.055Z,14.10
2017-11-20T15:23:27.672Z,11.97
2017-11-20T15:25:55.309Z,13.13
2017-11-20T15:28:22.954Z,11.00
2017-11-20T15:30:50.562Z,23.07
2017-11-20T15:33:18.185Z,22.23
2017-11-20T15:35:45.862Z,14.10
2017-11-20T15:38:13.469Z,12.40
2017-11-20T15:40:41.142Z,12.83
2017-11-20T15:43:08.792Z,15.10
2017-11-20T15:45:36.436Z,14.77
2017-11-20T15:48:04.055Z,22.20
2017-11-20T15:50:31.684Z,17.30
2017-11-20T15:52:59.295Z,13.27
2017-11-20T15:55:26.935Z,16.23
2017-11-20T15:57:54.563Z,15.30
2017-11-20T16:00:22.236Z,12.60
2017-11-20T16:02:49.862Z,11.43
2017-11-20T16:05:17.536Z,15.70
2017-11-20T16:07:45.186Z,13.90
2017-11-20T16:10:12.911Z,11.27
2017-11-20T16:12:40.571Z,12.07
2017-11-20T16:15:08.246Z,12.30
2017-11-20T16:17:35.874Z,13.30
2017-11-20T16:20:03.506Z,11.80
2017-11-20T16:22:31.126Z,13.03
2017-11-20T16:24:58.779Z,14.93
2017-11-20T16:27:26.406Z,13.97
2017-11-20T16:29:54.094Z,11.93
2017-11-20T16:32:21.723Z,12.23
2017-11-20T16:34:49.479Z,12.63
2017-11-20T16:37:17.089Z,12.73
2017-11-20T16:39:44.739Z,12.87
2017-11-20T16:42:12.370Z,11.77
2017-11-20T16:44:40.029Z,13.17
2017-11-20T16:47:07.635Z,15.50
2017-11-20T16:49:35.318Z,12.77
2017-11-20T16:52:02.969Z,11.80
2017-11-20T16:54:30.622Z,10.70
2017-11-20T16:57:09.831Z,10.13
2017-11-20T16:59:38.326Z,12.27
2017-11-20T17:02:30.181Z,13.20
2017-11-20T17:04:57.830Z,10.20
2017-11-20T17:07:25.444Z,12.37
2017-11-20T17:09:53.100Z,32.23
2017-11-20T17:12:20.713Z,10.93
2017-11-20T17:14:48.363Z,11.70
2017-11-20T17:17:15.979Z,11.97
2017-11-20T17:19:43.954Z,10.90
2017-11-20T17:22:11.555Z,8.70
2017-11-20T17:24:39.212Z,8.60
2017-11-20T17:27:06.828Z,9.87
2017-11-20T17:29:34.500Z,13.47
2017-11-20T17:32:02.132Z,9.33
2017-11-20T17:34:29.778Z,11.27
2017-11-20T17:36:57.391Z,10.77
2017-11-20T17:39:25.036Z,15.43
2017-11-20T17:41:52.651Z,14.60
2017-11-20T17:44:20.314Z,12.43
2017-11-20T17:46:47.906Z,12.00
2017-11-20T17:49:15.589Z,13.17
2017-11-20T17:51:43.270Z,13.63
2017-11-20T17:54:10.985Z,12.90
2017-11-20T17:56:38.599Z,12.97
2017-11-20T17:59:06.268Z,12.30
2017-11-20T18:01:33.908Z,18.70
2017-11-20T18:04:01.563Z,12.43
2017-11-20T18:06:29.203Z,15.63
2017-11-20T18:08:56.934Z,11.53
2017-11-20T18:11:24.546Z,13.00
2017-11-20T18:13:52.215Z,11.93
2017-11-20T18:16:19.835Z,11.87
2017-11-20T18:18:47.562Z,10.13
2017-11-20T18:21:15.180Z,9.40
2017-11-20T18:23:42.854Z,11.70
2017-11-20T18:26:10.537Z,8.83
2017-11-20T18:28:38.191Z,28.13
2017-11-20T18:31:05.880Z,9.40
2017-11-20T18:33:33.526Z,8.27
2017-11-20T18:36:01.144Z,9.23
2017-11-20T18:38:28.791Z,10.10
2017-11-20T18:40:56.456Z,8.97
2017-11-20T18:43:24.138Z,10.10
2017-11-20T18:45:51.795Z,10.33
2017-11-20T18:48:19.482Z,10.37
2017-11-20T18:50:47.116Z,11.23
2017-11-20T18:53:14.774Z,9.10
2017-11-20T18:55:42.381Z,10.40
2017-11-20T18:58:10.166Z,10.80
2017-11-20T19:00:49.587Z,11.00
2017-11-20T19:03:36.807Z,11.80
2017-11-20T19:06:16.014Z,12.13
2017-11-20T19:08:55.200Z,12.73
2017-11-20T19:11:24.550Z,11.40
2017-11-20T19:13:54.381Z,12.53
2017-11-20T19:16:22.118Z,11.80
2017-11-20T19:18:49.809Z,11.50
2017-11-20T19:21:23.899Z,11.17
2017-11-20T19:23:51.667Z,13.67
2017-11-20T19:26:19.297Z,10.97
2017-11-20T19:28:46.994Z,10.13
2017-11-20T19:31:14.630Z,9.17
2017-11-20T19:33:42.304Z,9.03
2017-11-20T19:36:10.035Z,9.80
2017-11-20T19:38:37.888Z,11.30
2017-11-20T19:41:05.703Z,8.17
2017-11-20T19:43:33.512Z,10.63
2017-11-20T19:46:01.235Z,8.87
2017-11-20T19:48:28.993Z,8.80
2017-11-20T19:50:57.013Z,14.00
2017-11-20T19:53:24.908Z,8.30
2017-11-20T19:55:52.759Z,8.27
2017-11-20T19:58:20.647Z,9.40
2017-11-20T20:00:48.525Z,10.00
2017-11-20T20:03:16.416Z,10.20
2017-11-20T20:05:44.198Z,11.17
2017-11-20T20:08:12.086Z,6.53
2017-11-20T20:10:39.871Z,10.73
2017-11-20T20:13:07.794Z,6.77
2017-11-20T20:15:43.975Z,7.27
2017-11-20T20:18:11.785Z,6.87
2017-11-20T20:20:39.632Z,8.30
2017-11-20T20:23:07.432Z,6.90
2017-11-20T20:25:35.174Z,7.10
2017-11-20T20:28:02.909Z,5.50
2017-11-20T20:30:30.643Z,5.37
2017-11-20T20:32:58.303Z,5.83
2017-11-20T20:35:25.954Z,6.37
2017-11-20T20:37:53.626Z,4.67
2017-11-20T20:40:21.225Z,5.20
2017-11-20T20:42:48.909Z,4.63
2017-11-20T20:45:16.574Z,7.10
2017-11-20T20:47:44.298Z,5.60
2017-11-20T20:50:11.903Z,5.43
2017-11-20T20:52:39.535Z,4.97
2017-11-20T20:55:09.591Z,5.23
2017-11-20T20:57:34.844Z,5.13
2017-11-20T21:00:02.488Z,7.93
2017-11-20T21:02:30.156Z,5.90
2017-11-20T21:04:57.772Z,7.27
2017-11-20T21:07:25.486Z,7.30
2017-11-20T21:09:58.630Z,6.93
2017-11-20T21:12:26.307Z,9.93
2017-11-20T21:14:53.947Z,7.43
2017-11-20T21:17:21.626Z,9.67
2017-11-20T21:19:49.315Z,10.07
2017-11-20T21:22:16.972Z,9.87
2017-11-20T21:24:44.639Z,10.20
2017-11-20T21:27:12.314Z,12.33
2017-11-20T21:29:39.934Z,12.87
2017-11-20T21:32:07.606Z,11.90
2017-11-20T21:34:35.246Z,12.60
2017-11-20T21:37:02.906Z,10.43
2017-11-20T21:39:30.574Z,11.30
2017-11-20T21:41:58.227Z,12.97
2017-11-20T21:44:25.865Z,11.97
2017-11-20T21:46:53.515Z,13.00
2017-11-20T21:49:21.159Z,11.50
2017-11-20T21:51:48.791Z,11.63
2017-11-20T21:54:16.446Z,12.07
2017-11-20T21:56:44.128Z,12.37
2017-11-20T21:59:11.774Z,12.87
2017-11-20T22:01:39.422Z,11.90
2017-11-20T22:04:07.127Z,13.60
2017-11-20T22:06:34.807Z,13.07
2017-11-20T22:09:02.431Z,12.47
2017-11-20T22:11:30.105Z,15.20
2017-11-20T22:13:57.719Z,13.90
2017-11-20T22:16:25.360Z,11.80
2017-11-20T22:18:52.996Z,15.50
2017-11-20T22:21:20.640Z,12.73
2017-11-20T22:23:48.234Z,14.50
2017-11-20T22:26:15.895Z,14.43
2017-11-20T22:28:43.539Z,12.77
2017-11-20T22:31:11.187Z,15.10
2017-11-20T22:33:38.819Z,15.07
2017-11-20T22:36:06.567Z,15.03
2017-11-20T22:38:34.210Z,13.07
2017-11-20T22:41:01.920Z,13.67
2017-11-20T22:43:29.553Z,14.60
2017-11-20T22:45:57.203Z,15.10
2017-11-20T22:48:24.822Z,16.00
2017-11-20T22:50:52.466Z,15.57
2017-11-20T22:53:20.075Z,16.10
2017-11-20T22:55:47.766Z,17.07
2017-11-20T22:58:15.377Z,16.53
2017-11-20T23:00:43.102Z,16.87
2017-11-20T23:03:10.772Z,16.83
2017-11-20T23:05:38.395Z,18.10
2017-11-20T23:08:06.055Z,15.10
2017-11-20T23:10:33.682Z,17.70
2017-11-20T23:13:01.332Z,15.97
2017-11-20T23:15:28.963Z,17.23
2017-11-20T23:17:56.625Z,16.87
2017-11-20T23:20:24.251Z,15.00
2017-11-20T23:22:51.912Z,16.80
2017-11-20T23:25:19.543Z,16.30
2017-11-20T23:27:47.161Z,16.10
2017-11-20T23:30:14.778Z,16.90
2017-11-20T23:32:42.432Z,16.90
2017-11-20T23:35:10.076Z,18.00
2017-11-20T23:37:37.722Z,14.67
2017-11-20T23:40:05.341Z,15.07
2017-11-20T23:42:33.021Z,16.03
2017-11-20T23:45:00.639Z,16.40
2017-11-20T23:47:28.298Z,16.53
2017-11-20T23:49:55.918Z,16.30
2017-11-20T23:52:23.654Z,14.80
2017-11-20T23:54:51.278Z,13.93
2017-11-20T23:57:18.919Z,15.57
2017-11-20T23:59:46.542Z,17.03
